Time;durP1;ratioP1;P1;durP2;ratioP2;P2;SDS_P1;SDS_P2;PMS_P1;PMS_P2;Temp;Humidity;BMP_temperature;BMP_pressure;BME280_temperature;BME280_humidity;BME280_pressure;Samples;Min_cycle;Max_cycle;Signal;HPM_P1;HPM_P2
2023/04/16 00:01:17;;;;;;;9.20;5.60;;;5.10;99.90;;;;;;4879579;29;20232;-77
2023/04/16 00:03:45;;;;;;;7.37;5.77;;;5.10;99.90;;;;;;4879212;29;20708;-75
2023/04/16 00:06:14;;;;;;;5.80;5.30;;;5.10;99.90;;;;;;4879568;29;20237;-75
2023/04/16 00:08:43;;;;;;;7.27;5.27;;;5.10;99.90;;;;;;4879594;29;20796;-76
2023/04/16 00:11:11;;;;;;;8.50;5.20;;;5.00;99.90;;;;;;4879900;29;20214;-77
2023/04/16 00:13:40;;;;;;;8.13;5.13;;;5.00;99.90;;;;;;4887172;29;20292;-76
2023/04/16 00:16:08;;;;;;;6.27;5.40;;;5.00;99.90;;;;;;4896958;29;20312;-75
2023/04/16 00:18:38;;;;;;;6.13;5.10;;;5.00;99.90;;;;;;4879525;29;20266;-73
2023/04/16 00:21:07;;;;;;;6.13;5.30;;;5.00;99.90;;;;;;4879765;29;20220;-74
2023/04/16 00:23:35;;;;;;;7.67;5.53;;;5.00;99.90;;;;;;4878822;29;20821;-73
2023/04/16 00:26:04;;;;;;;6.07;5.13;;;5.00;99.90;;;;;;4879142;29;20238;-76
2023/04/16 00:28:32;;;;;;;7.97;5.30;;;5.00;99.90;;;;;;4879029;29;20214;-75
2023/04/16 00:31:01;;;;;;;5.87;5.27;;;4.90;99.90;;;;;;4877999;29;20253;-75
2023/04/16 00:33:29;;;;;;;5.90;5.20;;;4.90;99.90;;;;;;4879918;29;20222;-72
2023/04/16 00:35:57;;;;;;;5.83;5.23;;;4.90;99.90;;;;;;4897972;29;20278;-75
2023/04/16 00:38:28;;;;;;;6.70;5.20;;;4.90;99.90;;;;;;4882280;29;20218;-74
2023/04/16 00:40:57;;;;;;;6.43;5.17;;;4.90;99.90;;;;;;4878985;29;20215;-72
2023/04/16 00:43:27;;;;;;;6.80;5.40;;;4.90;99.90;;;;;;4879166;29;20222;-74
2023/04/16 00:45:56;;;;;;;5.90;5.30;;;4.90;99.90;;;;;;4878871;29;20234;-75
2023/04/16 00:48:27;;;;;;;5.83;5.20;;;4.90;99.90;;;;;;4878962;29;20624;-75
2023/04/16 00:50:55;;;;;;;5.67;4.53;;;4.90;99.90;;;;;;4897573;29;20229;-76
2023/04/16 00:53:24;;;;;;;5.43;4.80;;;4.90;99.90;;;;;;4896943;29;20648;-76
2023/04/16 00:55:52;;;;;;;6.17;5.10;;;4.90;99.90;;;;;;4897858;29;20224;-77
2023/04/16 00:58:20;;;;;;;5.97;4.60;;;4.90;99.90;;;;;;4893589;29;20248;-75
2023/04/16 01:00:50;;;;;;;7.10;5.00;;;4.80;99.90;;;;;;4878925;29;20214;-76
2023/04/16 01:03:18;;;;;;;5.30;4.80;;;4.80;99.90;;;;;;4878744;29;20218;-75
2023/04/16 01:05:48;;;;;;;6.43;4.87;;;4.80;99.90;;;;;;4878742;29;20218;-76
2023/04/16 01:08:18;;;;;;;5.93;5.17;;;4.70;99.90;;;;;;4878893;29;20221;-76
2023/04/16 01:10:47;;;;;;;5.70;5.10;;;4.80;99.90;;;;;;4878220;29;20229;-75
2023/04/16 01:13:15;;;;;;;6.03;5.43;;;4.80;99.90;;;;;;4893944;29;20213;-78
2023/04/16 01:15:43;;;;;;;7.50;6.30;;;4.80;99.90;;;;;;4891795;29;20221;-74
2023/04/16 01:18:16;;;;;;;7.60;6.40;;;4.80;99.90;;;;;;4879064;29;20289;-75
2023/04/16 01:20:46;;;;;;;8.03;6.50;;;4.80;99.90;;;;;;4878565;29;20267;-74
2023/04/16 01:23:14;;;;;;;9.33;7.07;;;4.80;99.90;;;;;;4877885;29;20877;-76
2023/04/16 01:25:42;;;;;;;7.57;6.77;;;4.80;99.90;;;;;;4878734;29;20210;-73
2023/04/16 01:28:10;;;;;;;7.77;6.97;;;4.80;99.90;;;;;;4880861;29;20248;-73
2023/04/16 01:30:39;;;;;;;7.93;7.13;;;4.80;99.90;;;;;;4878818;29;20292;-75
2023/04/16 01:33:11;;;;;;;8.00;7.20;;;4.80;99.90;;;;;;4878070;29;20221;-76
2023/04/16 01:35:40;;;;;;;8.40;7.47;;;4.80;99.90;;;;;;4878719;29;20214;-75
2023/04/16 01:38:10;;;;;;;8.70;7.90;;;4.80;99.90;;;;;;4879872;29;20305;-73
2023/04/16 01:40:38;;;;;;;10.33;8.60;;;4.80;99.90;;;;;;4881420;29;20203;-72
2023/04/16 01:43:06;;;;;;;10.13;8.43;;;4.80;99.90;;;;;;4880206;29;20214;-72
2023/04/16 01:45:35;;;;;;;10.43;9.00;;;4.90;99.90;;;;;;4879388;29;20223;-75
2023/04/16 01:48:04;;;;;;;11.20;10.10;;;4.90;99.90;;;;;;4879661;29;20237;-73
2023/04/16 01:50:32;;;;;;;10.90;9.80;;;4.90;99.90;;;;;;4880387;29;20206;-73
2023/04/16 01:53:00;;;;;;;10.73;9.63;;;4.90;99.90;;;;;;4891260;29;20214;-75
2023/04/16 01:55:30;;;;;;;11.20;9.67;;;4.90;99.90;;;;;;4898200;29;20214;-77
2023/04/16 01:58:00;;;;;;;11.37;10.17;;;4.90;99.90;;;;;;4899557;29;20222;-74
2023/04/16 02:00:28;;;;;;;12.13;10.00;;;4.90;99.90;;;;;;4893309;29;20216;-73
2023/04/16 02:02:56;;;;;;;10.70;9.63;;;4.90;99.90;;;;;;4881478;29;20222;-75
2023/04/16 02:05:24;;;;;;;12.00;10.27;;;4.90;99.90;;;;;;4878251;29;20242;-76
2023/04/16 02:07:52;;;;;;;10.20;9.20;;;4.80;99.90;;;;;;4878151;29;20245;-76
2023/04/16 02:10:23;;;;;;;11.67;9.97;;;4.90;99.90;;;;;;4882401;29;20221;-75
2023/04/16 02:12:52;;;;;;;10.50;9.40;;;4.90;99.90;;;;;;4883284;29;20654;-76
2023/04/16 02:15:21;;;;;;;10.13;8.87;;;4.90;99.90;;;;;;4878415;29;20225;-76
2023/04/16 02:17:53;;;;;;;9.87;8.80;;;4.90;99.90;;;;;;4878379;29;20218;-78
2023/04/16 02:20:21;;;;;;;9.57;8.67;;;4.90;99.90;;;;;;4878387;29;20203;-76
2023/04/16 02:22:50;;;;;;;10.93;9.83;;;4.90;99.90;;;;;;4880922;29;20221;-77
2023/04/16 02:25:18;;;;;;;10.87;9.73;;;4.90;99.90;;;;;;4881389;29;20210;-75
2023/04/16 02:27:46;;;;;;;11.17;9.73;;;4.90;99.90;;;;;;4881397;29;20329;-77
2023/04/16 02:30:16;;;;;;;10.73;9.63;;;4.90;99.90;;;;;;4881510;29;20214;-75
2023/04/16 02:32:44;;;;;;;10.73;9.30;;;4.90;99.90;;;;;;4881428;29;20217;-76
2023/04/16 02:35:12;;;;;;;10.87;9.60;;;4.90;99.90;;;;;;4881032;29;20218;-75
2023/04/16 02:37:40;;;;;;;10.57;9.47;;;4.90;99.90;;;;;;4880934;29;20305;-76
2023/04/16 02:40:10;;;;;;;9.80;8.80;;;4.90;99.90;;;;;;4880775;29;20220;-75
2023/04/16 02:42:38;;;;;;;11.33;9.37;;;4.90;99.90;;;;;;4881279;29;20249;-76
2023/04/16 02:45:07;;;;;;;10.07;9.07;;;4.90;99.90;;;;;;4881244;29;20699;-74
2023/04/16 02:47:37;;;;;;;10.97;9.40;;;5.00;99.90;;;;;;4880618;29;20281;-74
2023/04/16 02:50:06;;;;;;;11.00;9.77;;;5.00;99.90;;;;;;4882106;29;20214;-74
2023/04/16 02:52:34;;;;;;;9.93;8.90;;;4.90;99.90;;;;;;4880787;29;20206;-76
2023/04/16 02:55:02;;;;;;;11.17;9.73;;;4.90;99.90;;;;;;4880858;29;20309;-75
2023/04/16 02:57:30;;;;;;;10.50;9.10;;;5.00;99.90;;;;;;4880456;29;20312;-74
2023/04/16 02:59:58;;;;;;;11.87;9.47;;;5.00;99.90;;;;;;4880752;29;20218;-75
2023/04/16 03:02:27;;;;;;;10.27;9.20;;;5.00;99.90;;;;;;4879857;29;20317;-75
2023/04/16 03:04:56;;;;;;;10.10;9.03;;;5.00;99.90;;;;;;4880713;29;20199;-74
2023/04/16 03:07:24;;;;;;;10.87;9.77;;;5.00;99.90;;;;;;4880063;29;20242;-77
2023/04/16 03:09:52;;;;;;;10.83;9.73;;;5.00;99.90;;;;;;4892062;29;20220;-74
2023/04/16 03:12:21;;;;;;;10.87;9.57;;;5.00;99.90;;;;;;4898964;29;20656;-75
2023/04/16 03:14:51;;;;;;;10.20;9.17;;;5.00;99.90;;;;;;4898354;29;20692;-78
2023/04/16 03:17:19;;;;;;;11.60;10.13;;;5.00;99.90;;;;;;4880302;29;20222;-76
2023/04/16 03:19:49;;;;;;;10.60;9.53;;;5.00;99.90;;;;;;4880495;29;20218;-76
2023/04/16 03:22:18;;;;;;;11.30;9.77;;;5.00;99.90;;;;;;4880443;29;20213;-78
2023/04/16 03:24:49;;;;;;;10.57;9.47;;;5.00;99.90;;;;;;4880208;29;20350;-78
2023/04/16 03:27:17;;;;;;;11.73;9.17;;;5.00;99.90;;;;;;4880187;29;20235;-77
2023/04/16 03:29:45;;;;;;;10.30;9.30;;;5.00;99.90;;;;;;4880503;29;20768;-74
2023/04/16 03:32:13;;;;;;;10.60;9.40;;;5.00;99.90;;;;;;4880070;29;20301;-75
2023/04/16 03:34:41;;;;;;;9.87;8.87;;;5.00;99.90;;;;;;4880071;29;20216;-76
2023/04/16 03:37:11;;;;;;;9.40;8.40;;;5.00;99.90;;;;;;4880759;29;20224;-78
2023/04/16 03:39:40;;;;;;;9.30;8.40;;;5.00;99.90;;;;;;4880708;29;20282;-77
2023/04/16 03:42:08;;;;;;;9.47;8.33;;;5.00;99.90;;;;;;4881212;29;20215;-77
2023/04/16 03:44:36;;;;;;;9.07;8.17;;;5.00;99.90;;;;;;4881714;29;20865;-78
2023/04/16 03:47:04;;;;;;;9.10;8.20;;;5.00;99.90;;;;;;4881695;29;20576;-74
2023/04/16 03:49:35;;;;;;;10.00;9.00;;;5.00;99.90;;;;;;4886227;29;20620;-75
2023/04/16 03:52:03;;;;;;;9.10;8.17;;;5.00;99.90;;;;;;4880151;29;20473;-75
2023/04/16 03:54:31;;;;;;;8.37;7.50;;;5.00;99.90;;;;;;4884484;29;20215;-75
2023/04/16 03:57:01;;;;;;;8.63;7.20;;;5.00;99.90;;;;;;4894303;29;20316;-77
2023/04/16 03:59:29;;;;;;;7.90;7.10;;;4.90;99.90;;;;;;4884013;29;20206;-76
2023/04/16 04:01:57;;;;;;;8.20;6.67;;;5.00;99.90;;;;;;4897504;29;20700;-75
2023/04/16 04:04:25;;;;;;;7.90;7.07;;;5.00;99.90;;;;;;4886185;29;20245;-76
2023/04/16 04:06:54;;;;;;;8.03;7.23;;;5.00;99.90;;;;;;4881564;29;20216;-77
2023/04/16 04:09:22;;;;;;;7.70;6.90;;;5.00;99.90;;;;;;4892601;29;20236;-77
2023/04/16 04:11:50;;;;;;;8.00;7.07;;;4.90;99.90;;;;;;4890621;29;20669;-77
2023/04/16 04:14:20;;;;;;;7.90;7.03;;;4.90;99.90;;;;;;4889107;29;20206;-77
2023/04/16 04:16:48;;;;;;;8.07;7.00;;;4.90;99.90;;;;;;4889752;29;20211;-77
2023/04/16 04:19:16;;;;;;;8.00;7.07;;;4.90;99.90;;;;;;4887626;29;20205;-78
2023/04/16 04:21:44;;;;;;;7.50;6.80;;;5.00;99.90;;;;;;4889405;29;20208;-75
2023/04/16 04:24:12;;;;;;;7.90;7.10;;;4.90;99.90;;;;;;4889098;29;20210;-79
2023/04/16 04:26:41;;;;;;;7.43;6.63;;;4.90;99.90;;;;;;4887654;29;20214;-75
2023/04/16 04:29:09;;;;;;;8.43;7.53;;;4.90;99.90;;;;;;4889006;29;20226;-76
2023/04/16 04:31:38;;;;;;;8.73;7.83;;;4.90;99.90;;;;;;4886670;29;20677;-73
2023/04/16 04:34:07;;;;;;;8.10;7.13;;;4.90;99.90;;;;;;4886498;29;20205;-74
2023/04/16 04:36:34;;;;;;;8.10;7.30;;;5.00;99.90;;;;;;4889608;29;20697;-78
2023/04/16 04:39:03;;;;;;;7.93;7.07;;;5.00;99.90;;;;;;4886771;29;20209;-75
2023/04/16 04:41:31;;;;;;;7.87;7.10;;;5.00;99.90;;;;;;4888890;29;20212;-75
2023/04/16 04:43:59;;;;;;;9.00;7.67;;;5.00;99.90;;;;;;4886760;29;20213;-75
2023/04/16 04:46:27;;;;;;;8.20;7.37;;;5.10;99.90;;;;;;4886344;29;20578;-74
2023/04/16 04:48:57;;;;;;;8.50;7.70;;;5.10;99.90;;;;;;4886234;29;20244;-76
2023/04/16 04:51:26;;;;;;;8.43;7.63;;;5.10;99.90;;;;;;4879478;29;20576;-74
2023/04/16 04:53:54;;;;;;;8.90;8.00;;;5.10;99.90;;;;;;4887018;29;20249;-75
2023/04/16 04:56:22;;;;;;;8.93;8.07;;;5.10;99.90;;;;;;4897399;29;20214;-77
2023/04/16 04:58:50;;;;;;;9.27;8.03;;;5.10;99.90;;;;;;4897509;29;20209;-73
2023/04/16 05:01:19;;;;;;;9.00;7.73;;;5.10;99.90;;;;;;4884189;29;20218;-77
2023/04/16 05:03:47;;;;;;;8.97;7.90;;;5.20;99.90;;;;;;4878868;29;20222;-74
2023/04/16 05:06:17;;;;;;;8.47;7.67;;;5.20;99.90;;;;;;4895331;29;20294;-77
2023/04/16 05:08:45;;;;;;;8.43;7.63;;;5.20;99.90;;;;;;4894531;29;20513;-77
2023/04/16 05:11:15;;;;;;;9.60;8.60;;;5.20;99.90;;;;;;4878750;29;20214;-75
2023/04/16 05:13:43;;;;;;;8.30;7.50;;;5.20;99.90;;;;;;4878594;29;20612;-77
2023/04/16 05:16:11;;;;;;;8.87;7.80;;;5.20;99.90;;;;;;4878466;29;20220;-73
2023/04/16 05:18:39;;;;;;;8.23;7.43;;;5.20;99.90;;;;;;4878394;29;20214;-79
2023/04/16 05:21:07;;;;;;;8.80;7.90;;;5.30;99.90;;;;;;4878807;29;20309;-77
2023/04/16 05:23:37;;;;;;;8.93;8.03;;;5.20;99.90;;;;;;4878573;29;20214;-78
2023/04/16 05:26:05;;;;;;;8.10;7.30;;;5.30;99.90;;;;;;4878583;29;20224;-78
2023/04/16 05:28:33;;;;;;;8.80;7.90;;;5.30;99.90;;;;;;4878173;29;20234;-75
2023/04/16 05:31:01;;;;;;;8.80;7.90;;;5.30;99.90;;;;;;4878612;29;20225;-78
2023/04/16 05:33:30;;;;;;;9.53;7.77;;;5.40;99.90;;;;;;4878288;29;20218;-80
2023/04/16 05:35:58;;;;;;;8.40;7.30;;;5.40;99.90;;;;;;4878252;29;20305;-74
2023/04/16 05:38:26;;;;;;;7.73;6.57;;;6.30;99.90;;;;;;4878522;29;20221;-76
2023/04/16 05:40:55;;;;;;;6.37;5.77;;;6.80;99.90;;;;;;4878155;29;20210;-75
2023/04/16 05:43:24;;;;;;;5.40;4.90;;;7.00;99.90;;;;;;4877913;29;20670;-75
2023/04/16 05:45:52;;;;;;;6.07;5.47;;;7.30;99.90;;;;;;4883961;29;20201;-79
2023/04/16 05:48:20;;;;;;;6.00;5.40;;;7.30;99.90;;;;;;4894435;29;20631;-76
2023/04/16 05:50:49;;;;;;;6.53;5.83;;;7.10;99.90;;;;;;4893756;29;20228;-74
2023/04/16 05:53:18;;;;;;;12.60;11.40;;;7.00;99.90;;;;;;4878040;29;20210;-76
2023/04/16 05:55:46;;;;;;;6.50;5.80;;;6.80;99.90;;;;;;4878881;29;20240;-73
2023/04/16 05:58:16;;;;;;;6.00;5.40;;;6.70;99.90;;;;;;4881622;29;20268;-76
2023/04/16 06:00:44;;;;;;;6.10;5.50;;;6.60;99.90;;;;;;4881511;29;20250;-77
2023/04/16 06:03:12;;;;;;;6.50;5.90;;;6.50;99.90;;;;;;4881326;29;20249;-75
2023/04/16 06:05:40;;;;;;;10.27;9.13;;;6.40;99.90;;;;;;4894537;29;20680;-76
2023/04/16 06:08:09;;;;;;;19.20;17.10;;;6.40;99.90;;;;;;4884415;29;20274;-76
2023/04/16 06:10:37;;;;;;;6.20;5.60;;;6.40;99.90;;;;;;4881615;29;20302;-77
2023/04/16 06:13:05;;;;;;;7.03;5.40;;;6.40;99.90;;;;;;4881196;29;20218;-78
2023/04/16 06:15:34;;;;;;;7.47;6.77;;;6.40;99.90;;;;;;4881864;29;20312;-74
2023/04/16 06:18:03;;;;;;;6.13;5.53;;;6.30;99.90;;;;;;4880805;29;20308;-77
2023/04/16 06:20:31;;;;;;;7.40;6.70;;;6.30;99.90;;;;;;4893973;29;20209;-77
2023/04/16 06:22:59;;;;;;;6.03;5.43;;;6.30;99.90;;;;;;4913305;29;20221;-75
2023/04/16 06:25:27;;;;;;;6.33;5.60;;;6.30;99.90;;;;;;4918730;29;20304;-74
2023/04/16 06:27:55;;;;;;;5.63;5.13;;;6.30;99.90;;;;;;4919568;29;20300;-77
2023/04/16 06:30:24;;;;;;;6.50;5.70;;;6.30;99.90;;;;;;4888205;29;20301;-74
2023/04/16 06:32:54;;;;;;;7.60;6.90;;;6.20;99.90;;;;;;4888183;29;20641;-73
2023/04/16 06:35:22;;;;;;;6.70;6.10;;;6.30;99.90;;;;;;4885865;29;20301;-76
2023/04/16 06:37:50;;;;;;;5.03;4.53;;;6.30;99.90;;;;;;4882113;29;20210;-74
2023/04/16 06:40:18;;;;;;;5.67;5.07;;;6.30;99.90;;;;;;4882945;29;20213;-77
2023/04/16 06:42:46;;;;;;;5.77;5.17;;;6.30;99.90;;;;;;4883002;29;20327;-77
2023/04/16 06:45:14;;;;;;;5.67;5.07;;;6.30;99.90;;;;;;4881892;29;20308;-76
2023/04/16 06:47:42;;;;;;;5.70;4.90;;;6.30;99.90;;;;;;4883475;29;20230;-76
2023/04/16 06:50:12;;;;;;;6.00;4.80;;;6.30;99.90;;;;;;4882959;29;20570;-76
2023/04/16 06:52:40;;;;;;;5.57;5.07;;;6.40;99.90;;;;;;4881977;29;20220;-77
2023/04/16 06:55:10;;;;;;;7.27;6.57;;;6.40;99.90;;;;;;4882230;29;20221;-75
2023/04/16 06:57:39;;;;;;;5.80;5.20;;;6.50;99.90;;;;;;4883032;29;20246;-75
2023/04/16 07:00:08;;;;;;;5.50;4.90;;;6.50;99.90;;;;;;4882832;29;20586;-77
2023/04/16 07:02:36;;;;;;;5.00;4.50;;;6.60;99.90;;;;;;4881465;29;20222;-78
2023/04/16 07:05:05;;;;;;;5.07;4.57;;;6.60;99.90;;;;;;4884823;29;20596;-77
2023/04/16 07:07:35;;;;;;;5.77;5.03;;;6.70;99.90;;;;;;4879601;29;20257;-78
2023/04/16 07:10:04;;;;;;;5.20;4.63;;;6.60;99.90;;;;;;4880868;29;20263;-77
2023/04/16 07:12:33;;;;;;;5.00;4.53;;;6.80;99.90;;;;;;4880516;29;20649;-76
2023/04/16 07:15:01;;;;;;;4.70;4.30;;;6.70;99.90;;;;;;4880709;29;20242;-77
2023/04/16 07:17:29;;;;;;;4.07;3.73;;;6.80;99.90;;;;;;4880540;29;20214;-78
2023/04/16 07:19:57;;;;;;;4.43;4.03;;;6.80;99.90;;;;;;4880721;29;20217;-75
2023/04/16 07:22:25;;;;;;;4.10;3.70;;;6.80;99.90;;;;;;4880420;29;20257;-75
2023/04/16 07:24:55;;;;;;;4.00;3.60;;;6.90;99.90;;;;;;4880142;29;20301;-76
2023/04/16 07:27:23;;;;;;;4.20;3.80;;;7.00;99.90;;;;;;4880268;29;20677;-77
2023/04/16 07:29:51;;;;;;;3.80;3.40;;;7.10;99.90;;;;;;4879809;29;20735;-78
2023/04/16 07:32:21;;;;;;;4.00;3.53;;;7.10;99.90;;;;;;4880096;29;20222;-74
2023/04/16 07:34:49;;;;;;;3.53;3.23;;;7.10;99.90;;;;;;4882273;29;20671;-76
2023/04/16 07:37:17;;;;;;;3.60;3.30;;;7.20;99.90;;;;;;4903147;29;20301;-75
2023/04/16 07:39:46;;;;;;;3.83;2.80;;;7.30;99.90;;;;;;4898785;29;20213;-76
2023/04/16 07:42:15;;;;;;;3.43;3.13;;;7.20;99.90;;;;;;4898016;29;20676;-76
2023/04/16 07:44:44;;;;;;;3.93;3.00;;;7.20;99.90;;;;;;4888856;29;20206;-74
2023/04/16 07:47:12;;;;;;;3.30;3.00;;;7.30;99.90;;;;;;4879843;29;20225;-77
2023/04/16 07:49:40;;;;;;;3.43;3.13;;;7.30;99.90;;;;;;4879225;29;20708;-74
2023/04/16 07:52:08;;;;;;;3.23;2.93;;;7.20;99.90;;;;;;4889532;29;20214;-74
2023/04/16 07:54:36;;;;;;;2.80;2.60;;;7.30;99.90;;;;;;4905622;29;20220;-76
2023/04/16 07:57:05;;;;;;;2.93;2.57;;;7.40;99.90;;;;;;4898267;29;20324;-74
2023/04/16 07:59:34;;;;;;;2.50;2.30;;;7.50;99.90;;;;;;4898130;29;20231;-75
2023/04/16 08:02:02;;;;;;;2.80;2.23;;;7.50;99.90;;;;;;4886338;29;20308;-76
2023/04/16 08:04:30;;;;;;;2.50;2.30;;;7.70;99.90;;;;;;4897979;29;20248;-74
2023/04/16 08:06:59;;;;;;;2.47;2.27;;;7.60;99.90;;;;;;4897335;29;20213;-75
2023/04/16 08:09:28;;;;;;;2.03;1.93;;;7.70;99.90;;;;;;4896931;29;20214;-74
2023/04/16 08:11:56;;;;;;;1.90;1.80;;;7.70;99.90;;;;;;4898044;29;20213;-76
2023/04/16 08:14:24;;;;;;;1.63;1.53;;;7.60;99.90;;;;;;4898102;29;20672;-76
2023/04/16 08:16:53;;;;;;;2.20;2.00;;;7.70;99.90;;;;;;4898188;29;20248;-76
2023/04/16 08:19:21;;;;;;;1.80;1.70;;;7.70;99.90;;;;;;4891546;29;20213;-74
2023/04/16 08:21:50;;;;;;;1.50;1.40;;;7.60;99.90;;;;;;4897860;29;20209;-76
2023/04/16 08:24:18;;;;;;;1.40;1.30;;;7.60;99.90;;;;;;4895657;29;20245;-73
2023/04/16 08:26:46;;;;;;;1.37;1.27;;;7.80;99.90;;;;;;4897630;29;20206;-76
2023/04/16 08:29:14;;;;;;;1.40;1.30;;;7.90;99.90;;;;;;4897453;29;20220;-73
2023/04/16 08:31:42;;;;;;;1.20;1.20;;;8.00;99.90;;;;;;4897956;29;20594;-73
2023/04/16 08:34:12;;;;;;;1.63;1.20;;;8.00;99.90;;;;;;4905411;29;20475;-76
2023/04/16 08:36:40;;;;;;;1.60;1.20;;;8.20;99.90;;;;;;4879183;29;20225;-76
2023/04/16 08:39:08;;;;;;;1.00;1.00;;;8.30;99.90;;;;;;4879494;29;20412;-76
2023/04/16 08:41:40;;;;;;;1.10;1.00;;;8.40;99.90;;;;;;4878887;29;20669;-75
2023/04/16 08:44:13;;;;;;;1.10;1.00;;;8.50;99.90;;;;;;4880785;29;20313;-74
2023/04/16 08:46:43;;;;;;;1.00;0.90;;;8.50;99.90;;;;;;4878824;29;20222;-76
2023/04/16 08:49:17;;;;;;;0.90;0.90;;;8.60;99.90;;;;;;4879175;29;20259;-76
2023/04/16 08:51:50;;;;;;;0.80;0.80;;;8.50;99.90;;;;;;4885327;29;20312;-77
2023/04/16 08:54:31;;;;;;;0.70;0.70;;;8.40;99.90;;;;;;4888239;29;20198;-76
2023/04/16 08:57:00;;;;;;;0.80;0.80;;;8.30;99.90;;;;;;4888635;29;20233;-73
2023/04/16 08:59:29;;;;;;;0.50;0.50;;;8.30;99.90;;;;;;4890240;29;20304;-74
2023/04/16 09:01:58;;;;;;;0.80;0.80;;;8.30;99.90;;;;;;4894685;29;20224;-73
2023/04/16 09:04:29;;;;;;;0.80;0.80;;;8.30;99.90;;;;;;4897644;29;20245;-74
2023/04/16 09:06:58;;;;;;;0.90;0.90;;;8.30;99.90;;;;;;4898310;29;20320;-76
2023/04/16 09:09:27;;;;;;;1.00;1.00;;;8.40;99.90;;;;;;4883636;29;20218;-74
2023/04/16 09:11:56;;;;;;;0.77;0.77;;;8.50;99.90;;;;;;4878618;29;20234;-77
2023/04/16 09:14:25;;;;;;;0.70;0.70;;;8.50;99.90;;;;;;4879065;29;20306;-72
2023/04/16 09:16:54;;;;;;;1.20;1.10;;;8.80;99.90;;;;;;4878577;29;20241;-76
2023/04/16 09:19:23;;;;;;;1.07;1.03;;;8.80;99.90;;;;;;4878196;29;20264;-77
2023/04/16 09:21:53;;;;;;;0.60;0.60;;;8.80;99.90;;;;;;4878461;29;20215;-76
2023/04/16 09:24:22;;;;;;;1.50;0.90;;;8.90;99.90;;;;;;4878662;29;20225;-75
2023/04/16 09:26:51;;;;;;;0.90;0.70;;;8.90;99.90;;;;;;4878465;29;20225;-75
2023/04/16 09:29:35;;;;;;;1.33;1.20;;;9.00;99.90;;;;;;4878245;29;20206;-76
2023/04/16 09:32:04;;;;;;;0.70;0.70;;;9.10;99.90;;;;;;4880539;29;20282;-76
2023/04/16 09:34:33;;;;;;;1.13;1.03;;;9.20;99.90;;;;;;4882184;29;20688;-76
2023/04/16 09:37:18;;;;;;;1.20;1.10;;;9.20;99.90;;;;;;4882394;29;20226;-76
2023/04/16 09:39:53;;;;;;;1.40;1.27;;;9.20;99.90;;;;;;4882232;29;20241;-78
2023/04/16 09:42:24;;;;;;;1.40;1.30;;;9.40;99.90;;;;;;4881676;29;20310;-75
2023/04/16 09:44:52;;;;;;;0.80;0.80;;;9.80;99.90;;;;;;4882138;29;20229;-77
2023/04/16 09:47:21;;;;;;;0.67;0.67;;;10.20;99.90;;;;;;4881949;29;20309;-75
2023/04/16 09:49:49;;;;;;;1.17;1.07;;;10.50;99.90;;;;;;4882366;29;20210;-77
2023/04/16 09:52:22;;;;;;;1.20;0.90;;;10.90;99.90;;;;;;4881714;29;20230;-76
2023/04/16 09:54:52;;;;;;;0.80;0.80;;;11.00;99.90;;;;;;4882261;29;20230;-75
2023/04/16 09:57:21;;;;;;;0.53;0.53;;;11.10;99.90;;;;;;4882119;29;20272;-76
2023/04/16 09:59:53;;;;;;;0.60;0.60;;;11.10;99.90;;;;;;4888263;29;20213;-77
2023/04/16 10:02:22;;;;;;;0.57;0.57;;;11.20;99.90;;;;;;4902101;29;20273;-75
2023/04/16 10:04:51;;;;;;;0.70;0.70;;;11.40;99.90;;;;;;4900080;29;20305;-77
2023/04/16 10:07:22;;;;;;;0.70;0.70;;;11.40;99.90;;;;;;4898611;29;20223;-77
2023/04/16 10:09:51;;;;;;;0.90;0.90;;;11.60;99.90;;;;;;4900273;29;20210;-78
2023/04/16 10:12:20;;;;;;;1.07;0.60;;;11.50;99.90;;;;;;4899452;29;20731;-76
2023/04/16 10:14:49;;;;;;;0.90;0.90;;;11.50;99.90;;;;;;4898349;29;20301;-77
2023/04/16 10:17:18;;;;;;;1.33;1.23;;;11.70;99.90;;;;;;4898518;29;20220;-74
2023/04/16 10:19:47;;;;;;;1.67;1.27;;;12.10;99.90;;;;;;4899712;29;20205;-77
2023/04/16 10:22:16;;;;;;;1.20;1.10;;;12.20;99.90;;;;;;4899789;29;20213;-76
2023/04/16 10:24:46;;;;;;;1.10;0.73;;;12.20;99.90;;;;;;4899880;29;20237;-77
2023/04/16 10:27:16;;;;;;;1.43;0.80;;;12.00;99.90;;;;;;4883771;29;20210;-76
2023/04/16 10:29:44;;;;;;;0.60;0.60;;;11.70;99.90;;;;;;4881055;29;20321;-78
2023/04/16 10:32:14;;;;;;;0.90;0.90;;;11.40;99.90;;;;;;4881084;29;20285;-74
2023/04/16 10:34:43;;;;;;;2.10;1.00;;;11.30;99.90;;;;;;4881758;29;20225;-74
2023/04/16 10:37:11;;;;;;;1.20;1.10;;;11.10;99.90;;;;;;4880902;29;20210;-77
2023/04/16 10:39:39;;;;;;;0.80;0.80;;;10.90;99.90;;;;;;4881034;29;20622;-77
2023/04/16 10:42:10;;;;;;;1.50;1.23;;;11.00;99.90;;;;;;4894318;29;20269;-76
2023/04/16 10:44:40;;;;;;;1.53;1.40;;;11.10;99.90;;;;;;4888284;29;20221;-75
2023/04/16 10:47:12;;;;;;;2.00;1.00;;;11.00;99.90;;;;;;4881262;29;20209;-78
2023/04/16 10:49:42;;;;;;;0.50;0.50;;;10.90;99.90;;;;;;4881243;29;20218;-77
2023/04/16 10:52:12;;;;;;;0.80;0.80;;;10.70;99.90;;;;;;4893737;29;20229;-76
2023/04/16 10:54:41;;;;;;;1.03;0.90;;;10.60;99.90;;;;;;4902893;29;20265;-75
2023/04/16 10:57:17;;;;;;;1.17;0.70;;;10.60;99.90;;;;;;4903944;29;20250;-78
2023/04/16 10:59:46;;;;;;;1.23;0.90;;;10.50;99.90;;;;;;4898095;29;20252;-75
2023/04/16 11:02:16;;;;;;;0.87;0.87;;;10.40;99.90;;;;;;4896865;29;20214;-76
2023/04/16 11:04:47;;;;;;;0.97;0.90;;;10.30;99.90;;;;;;4887028;29;20222;-75
2023/04/16 11:07:19;;;;;;;0.83;0.83;;;10.20;99.90;;;;;;4884116;29;20245;-76
2023/04/16 11:09:53;;;;;;;0.70;0.60;;;10.40;99.90;;;;;;4916658;29;20628;-75
2023/04/16 11:12:26;;;;;;;0.80;0.80;;;10.50;99.90;;;;;;4910284;29;20304;-77
2023/04/16 11:14:58;;;;;;;0.77;0.77;;;10.50;99.90;;;;;;4888670;29;20700;-77
2023/04/16 11:17:29;;;;;;;0.93;0.80;;;10.70;99.90;;;;;;4886412;29;20241;-77
2023/04/16 11:19:57;;;;;;;0.60;0.60;;;10.80;99.90;;;;;;4880348;29;20651;-75
2023/04/16 11:22:26;;;;;;;2.13;0.83;;;10.70;99.90;;;;;;4881048;29;20222;-73
2023/04/16 11:24:56;;;;;;;0.80;0.80;;;10.70;99.90;;;;;;4891048;29;20348;-76
2023/04/16 11:27:26;;;;;;;0.80;0.80;;;10.70;99.90;;;;;;4900236;29;20213;-74
2023/04/16 11:29:58;;;;;;;0.77;0.77;;;10.60;99.90;;;;;;4886001;29;20211;-74
2023/04/16 11:32:27;;;;;;;0.80;0.80;;;10.70;99.90;;;;;;4889517;29;20273;-74
2023/04/16 11:34:55;;;;;;;0.80;0.80;;;10.70;99.90;;;;;;4898873;29;20273;-75
2023/04/16 11:37:33;;;;;;;0.80;0.80;;;10.50;99.90;;;;;;4899482;29;20241;-76
2023/04/16 11:40:03;;;;;;;0.77;0.77;;;10.60;99.90;;;;;;4880213;29;20202;-73
2023/04/16 11:42:35;;;;;;;0.90;0.90;;;10.50;99.90;;;;;;4879654;29;20226;-77
2023/04/16 11:45:05;;;;;;;1.00;1.00;;;10.70;99.90;;;;;;4880061;29;20213;-75
2023/04/16 11:47:45;;;;;;;1.23;0.83;;;10.70;99.90;;;;;;4881434;29;20639;-73
2023/04/16 11:50:20;;;;;;;0.67;0.67;;;10.60;99.90;;;;;;4895407;29;20217;-74
2023/04/16 11:52:50;;;;;;;0.83;0.83;;;10.50;99.90;;;;;;4900776;29;20217;-76
2023/04/16 11:55:19;;;;;;;1.10;1.00;;;10.40;99.90;;;;;;4911090;29;20296;-74
2023/04/16 11:57:49;;;;;;;0.87;0.87;;;10.40;99.90;;;;;;4913530;29;20220;-75
2023/04/16 12:00:19;;;;;;;1.20;0.87;;;10.40;99.90;;;;;;4898623;29;20206;-74
2023/04/16 12:02:53;;;;;;;3.37;2.47;;;10.40;99.90;;;;;;4880315;29;20218;-76
2023/04/16 12:05:30;;;;;;;1.00;1.00;;;10.30;99.90;;;;;;4879967;29;20225;-73
2023/04/16 12:08:00;;;;;;;1.13;1.00;;;10.30;99.90;;;;;;4880159;29;20202;-74
2023/04/16 12:10:28;;;;;;;14.77;13.17;;;10.30;99.90;;;;;;4879618;29;20207;-76
2023/04/16 12:13:10;;;;;;;8.83;7.93;;;10.30;99.90;;;;;;4879503;29;20226;-75
2023/04/16 12:15:49;;;;;;;2.40;2.17;;;10.30;99.90;;;;;;4878083;29;20220;-74
2023/04/16 12:18:17;;;;;;;2.80;1.37;;;10.40;99.90;;;;;;4895491;29;20568;-74
2023/04/16 12:20:45;;;;;;;1.20;1.20;;;10.40;99.90;;;;;;4898191;29;20300;-73
2023/04/16 12:23:23;;;;;;;1.57;1.20;;;10.40;99.90;;;;;;4897960;29;20214;-76
2023/04/16 12:25:53;;;;;;;1.00;0.90;;;10.40;99.90;;;;;;4881685;29;20221;-78
2023/04/16 12:28:30;;;;;;;0.80;0.80;;;10.30;99.90;;;;;;4880084;29;20214;-74
2023/04/16 12:30:59;;;;;;;0.90;0.90;;;10.40;99.90;;;;;;4879995;29;20209;-75
2023/04/16 12:33:27;;;;;;;0.80;0.80;;;10.40;99.90;;;;;;4879200;29;20659;-75
2023/04/16 12:35:56;;;;;;;1.00;0.83;;;10.40;99.90;;;;;;4889272;29;20308;-77
2023/04/16 12:38:25;;;;;;;0.77;0.77;;;10.60;99.90;;;;;;4889770;29;20233;-75
2023/04/16 12:40:55;;;;;;;1.10;1.00;;;10.70;99.90;;;;;;4894937;29;20225;-75
2023/04/16 12:43:24;;;;;;;0.80;0.80;;;10.70;99.90;;;;;;4893893;29;20201;-78
2023/04/16 12:45:54;;;;;;;0.90;0.80;;;10.80;99.90;;;;;;4897558;29;20245;-77
2023/04/16 12:48:23;;;;;;;1.20;1.10;;;10.80;99.90;;;;;;4898233;29;20244;-77
2023/04/16 12:50:53;;;;;;;0.93;0.93;;;10.70;99.90;;;;;;4897806;29;20221;-76
2023/04/16 12:53:21;;;;;;;0.90;0.90;;;10.70;99.90;;;;;;4882819;29;20231;-76
2023/04/16 12:55:49;;;;;;;1.00;0.90;;;10.60;99.90;;;;;;4908234;29;20219;-74
2023/04/16 12:58:17;;;;;;;1.30;1.20;;;10.60;99.90;;;;;;4901933;29;20214;-75
2023/04/16 13:00:46;;;;;;;0.77;0.77;;;10.60;99.90;;;;;;4888193;29;20218;-79
2023/04/16 13:03:15;;;;;;;1.53;1.20;;;10.60;99.90;;;;;;4880417;29;20249;-78